Time;durP1;ratioP1;P1;durP2;ratioP2;P2;SDS_P1;SDS_P2;PMS_P1;PMS_P2;Temp;Humidity;BMP_temperature;BMP_pressure;BME280_temperature;BME280_humidity;BME280_pressure;Samples;Min_cycle;Max_cycle;Signal;HPM_P1;HPM_P2
2022/10/08 00:01:43;;;;;;;11.38;2.90;;;;;;;;;;4974315;28;20046;-65
2022/10/08 00:04:10;;;;;;;13.52;2.97;;;;;;;;;;4977121;28;20441;-65
2022/10/08 00:06:36;;;;;;;10.93;2.53;;;;;;;;;;4975861;28;20402;-65
2022/10/08 00:09:04;;;;;;;14.77;2.35;;;;;;;;;;4975715;28;20517;-65
2022/10/08 00:11:32;;;;;;;14.68;2.58;;;;;;;;;;4956219;28;20055;-65
2022/10/08 00:14:00;;;;;;;11.07;3.63;;;;;;;;;;4958727;28;20039;-65
2022/10/08 00:16:31;;;;;;;11.40;3.35;;;;;;;;;;4940376;28;20054;-65
2022/10/08 00:19:00;;;;;;;13.45;2.40;;;;;;;;;;4941065;28;20059;-65
2022/10/08 00:21:28;;;;;;;16.98;2.92;;;;;;;;;;4939089;28;20058;-65
2022/10/08 00:23:55;;;;;;;11.20;2.65;;;;;;;;;;4957476;28;20197;-65
2022/10/08 00:26:23;;;;;;;13.63;2.75;;;;;;;;;;4936475;28;20073;-65
2022/10/08 00:28:49;;;;;;;13.27;2.22;;;;;;;;;;4939129;28;21516;-65
2022/10/08 00:31:17;;;;;;;14.70;2.45;;;;;;;;;;4956473;28;20531;-65
2022/10/08 00:33:43;;;;;;;12.10;2.42;;;;;;;;;;4957300;28;20716;-65
2022/10/08 00:36:11;;;;;;;10.75;2.85;;;;;;;;;;4956186;28;20042;-65
2022/10/08 00:38:38;;;;;;;11.13;2.05;;;;;;;;;;4937138;28;20047;-65
2022/10/08 00:41:05;;;;;;;11.70;2.67;;;;;;;;;;4958991;28;20089;-65
2022/10/08 00:43:37;;;;;;;9.80;2.80;;;;;;;;;;4959005;28;20400;-65
2022/10/08 00:46:04;;;;;;;10.52;2.25;;;;;;;;;;4941918;28;20050;-65
2022/10/08 00:48:30;;;;;;;14.75;2.50;;;;;;;;;;4938806;28;20051;-65
2022/10/08 00:50:56;;;;;;;12.48;2.58;;;;;;;;;;4955619;28;20387;-65
2022/10/08 00:53:22;;;;;;;16.77;3.20;;;;;;;;;;4940400;28;20401;-65
2022/10/08 00:55:49;;;;;;;15.57;2.47;;;;;;;;;;4955049;28;20039;-65
2022/10/08 00:58:18;;;;;;;8.93;2.10;;;;;;;;;;4940084;28;20478;-65
2022/10/08 01:00:44;;;;;;;11.18;2.08;;;;;;;;;;4958305;28;20038;-65
2022/10/08 01:03:10;;;;;;;15.15;2.47;;;;;;;;;;4955482;28;20043;-65
2022/10/08 01:05:42;;;;;;;12.40;2.47;;;;;;;;;;4941406;28;20042;-65
2022/10/08 01:08:09;;;;;;;11.55;1.88;;;;;;;;;;4960770;28;20051;-65
2022/10/08 01:10:42;;;;;;;15.30;2.17;;;;;;;;;;4971122;28;20980;-65
2022/10/08 01:13:15;;;;;;;8.73;2.72;;;;;;;;;;4978652;28;20069;-65
2022/10/08 01:15:48;;;;;;;6.15;2.00;;;;;;;;;;4975973;28;20141;-65
2022/10/08 01:18:14;;;;;;;7.22;1.70;;;;;;;;;;4978387;28;20125;-65
2022/10/08 01:20:46;;;;;;;9.43;2.05;;;;;;;;;;4974112;28;20050;-65
2022/10/08 01:23:24;;;;;;;8.25;1.73;;;;;;;;;;4976022;28;20555;-65
2022/10/08 01:26:02;;;;;;;11.55;2.13;;;;;;;;;;4977106;28;20401;-65
2022/10/08 01:28:31;;;;;;;19.13;2.15;;;;;;;;;;4974370;28;20054;-65
2022/10/08 01:31:00;;;;;;;13.60;2.63;;;;;;;;;;4975543;28;20050;-65
2022/10/08 01:33:31;;;;;;;12.32;2.53;;;;;;;;;;4977256;28;20525;-65
2022/10/08 01:35:59;;;;;;;9.25;2.03;;;;;;;;;;4973175;28;20042;-64
2022/10/08 01:38:27;;;;;;;11.20;2.17;;;;;;;;;;4977456;28;20788;-65
2022/10/08 01:40:57;;;;;;;9.48;2.30;;;;;;;;;;4976753;28;20050;-65
2022/10/08 01:43:25;;;;;;;11.55;2.88;;;;;;;;;;4974794;28;20125;-65
2022/10/08 01:45:55;;;;;;;11.65;2.47;;;;;;;;;;4973576;28;20136;-65
2022/10/08 01:48:26;;;;;;;9.02;2.17;;;;;;;;;;4974189;28;20054;-65
2022/10/08 01:50:54;;;;;;;9.57;1.85;;;;;;;;;;4975755;28;20387;-65
2022/10/08 01:53:23;;;;;;;8.65;2.03;;;;;;;;;;4977862;28;20091;-65
2022/10/08 01:55:52;;;;;;;7.90;2.05;;;;;;;;;;4979159;28;20038;-65
2022/10/08 01:58:24;;;;;;;7.10;1.90;;;;;;;;;;4975199;28;20434;-64
2022/10/08 02:00:53;;;;;;;10.73;2.42;;;;;;;;;;4970722;28;20062;-65
2022/10/08 02:03:19;;;;;;;9.73;2.28;;;;;;;;;;4974140;28;20061;-65
2022/10/08 02:05:49;;;;;;;14.02;2.00;;;;;;;;;;4975607;28;20050;-65
2022/10/08 02:08:15;;;;;;;8.80;1.95;;;;;;;;;;4974457;28;20043;-65
2022/10/08 02:10:42;;;;;;;8.27;2.00;;;;;;;;;;4973550;28;20063;-65
2022/10/08 02:13:08;;;;;;;7.90;1.58;;;;;;;;;;4974095;28;20166;-65
2022/10/08 02:15:48;;;;;;;7.55;1.88;;;;;;;;;;4973817;28;20482;-65
2022/10/08 02:18:17;;;;;;;6.18;1.90;;;;;;;;;;4974298;28;20092;-65
2022/10/08 02:20:49;;;;;;;9.15;2.03;;;;;;;;;;4974731;28;20050;-65
2022/10/08 02:23:30;;;;;;;12.43;2.58;;;;;;;;;;4979998;28;21507;-65
2022/10/08 02:25:57;;;;;;;10.30;1.98;;;;;;;;;;4977418;28;20107;-65
2022/10/08 02:28:30;;;;;;;9.48;1.90;;;;;;;;;;4979397;28;20536;-65
2022/10/08 02:31:17;;;;;;;8.48;2.13;;;;;;;;;;4978823;28;21381;-65
2022/10/08 02:33:45;;;;;;;11.05;2.35;;;;;;;;;;4978160;28;20065;-65
2022/10/08 02:36:13;;;;;;;9.10;2.00;;;;;;;;;;4981422;28;20418;-65
2022/10/08 02:38:42;;;;;;;9.35;1.90;;;;;;;;;;4976958;28;20061;-65
2022/10/08 02:41:10;;;;;;;10.38;2.25;;;;;;;;;;4974314;28;20050;-65
2022/10/08 02:43:40;;;;;;;11.57;1.70;;;;;;;;;;4978549;28;20525;-65
2022/10/08 02:46:10;;;;;;;6.68;1.90;;;;;;;;;;4981208;28;20057;-65
2022/10/08 02:48:41;;;;;;;11.38;2.78;;;;;;;;;;4977142;28;20038;-65
2022/10/08 02:51:10;;;;;;;6.47;1.77;;;;;;;;;;4979357;28;20057;-65
2022/10/08 02:53:37;;;;;;;17.42;3.13;;;;;;;;;;4979111;28;20046;-65
2022/10/08 02:56:07;;;;;;;6.75;1.70;;;;;;;;;;4978934;28;20042;-65
2022/10/08 02:58:33;;;;;;;11.20;2.33;;;;;;;;;;4979808;28;20050;-65
2022/10/08 03:01:04;;;;;;;10.15;2.13;;;;;;;;;;4979621;28;20046;-65
2022/10/08 03:03:33;;;;;;;11.60;2.13;;;;;;;;;;4977454;28;20046;-65
2022/10/08 03:06:03;;;;;;;12.45;2.30;;;;;;;;;;4975985;28;20132;-65
2022/10/08 03:08:29;;;;;;;9.93;2.30;;;;;;;;;;4992680;28;20052;-65
2022/10/08 03:10:56;;;;;;;11.07;2.60;;;;;;;;;;4974040;28;20221;-65
2022/10/08 03:13:23;;;;;;;13.02;2.45;;;;;;;;;;4962127;28;20537;-65
2022/10/08 03:15:52;;;;;;;10.15;2.70;;;;;;;;;;4979815;28;20139;-65
2022/10/08 03:18:19;;;;;;;7.78;1.83;;;;;;;;;;4980615;28;20058;-65
2022/10/08 03:20:48;;;;;;;11.70;3.88;;;;;;;;;;4974490;28;20393;-65
2022/10/08 03:23:15;;;;;;;14.18;2.80;;;;;;;;;;4977705;28;20062;-65
2022/10/08 03:25:42;;;;;;;9.82;2.15;;;;;;;;;;4978127;28;20050;-65
2022/10/08 03:28:08;;;;;;;11.32;2.35;;;;;;;;;;4980752;28;20473;-65
2022/10/08 03:30:34;;;;;;;24.38;3.33;;;;;;;;;;4978721;28;20466;-65
2022/10/08 03:33:00;;;;;;;13.07;2.58;;;;;;;;;;4976196;28;20057;-65
2022/10/08 03:35:27;;;;;;;21.63;2.40;;;;;;;;;;4978622;28;20057;-64
2022/10/08 03:37:53;;;;;;;14.77;2.63;;;;;;;;;;4975332;28;20394;-65
2022/10/08 03:40:20;;;;;;;15.52;2.70;;;;;;;;;;4977727;28;20069;-65
2022/10/08 03:42:46;;;;;;;17.15;2.92;;;;;;;;;;4976710;28;20101;-65
2022/10/08 03:45:12;;;;;;;17.30;2.90;;;;;;;;;;4978677;28;20069;-65
2022/10/08 03:47:38;;;;;;;15.80;2.47;;;;;;;;;;4979400;28;20042;-65
2022/10/08 03:50:05;;;;;;;15.85;2.42;;;;;;;;;;4973341;28;20085;-65
2022/10/08 03:52:31;;;;;;;10.23;2.65;;;;;;;;;;4974009;28;21240;-65
2022/10/08 03:54:57;;;;;;;17.27;2.35;;;;;;;;;;4979929;28;20100;-65
2022/10/08 03:57:23;;;;;;;13.57;2.53;;;;;;;;;;4978477;28;20042;-65
2022/10/08 03:59:49;;;;;;;12.48;2.30;;;;;;;;;;4978937;28;20050;-65
2022/10/08 04:02:15;;;;;;;9.80;1.80;;;;;;;;;;4977854;28;20034;-65
2022/10/08 04:04:41;;;;;;;10.25;2.20;;;;;;;;;;4976879;28;20137;-65
2022/10/08 04:07:07;;;;;;;10.25;2.17;;;;;;;;;;4976132;28;20119;-65
2022/10/08 04:09:34;;;;;;;13.85;2.50;;;;;;;;;;4978865;28;20050;-65
2022/10/08 04:12:00;;;;;;;8.40;1.77;;;;;;;;;;4978506;28;20129;-65
2022/10/08 04:14:26;;;;;;;7.60;1.98;;;;;;;;;;4975078;28;20042;-65
2022/10/08 04:16:54;;;;;;;14.23;2.70;;;;;;;;;;4978853;28;20050;-65
2022/10/08 04:19:20;;;;;;;9.38;1.85;;;;;;;;;;4975067;28;20051;-65
2022/10/08 04:21:46;;;;;;;12.95;2.42;;;;;;;;;;4972388;28;20042;-65
2022/10/08 04:24:12;;;;;;;10.55;2.10;;;;;;;;;;4978447;28;20046;-65
2022/10/08 04:26:38;;;;;;;9.15;1.80;;;;;;;;;;4983517;28;20054;-65
2022/10/08 04:29:07;;;;;;;11.07;2.28;;;;;;;;;;4979865;28;20096;-65
2022/10/08 04:31:33;;;;;;;19.38;2.65;;;;;;;;;;4979848;28;20057;-65
2022/10/08 04:33:59;;;;;;;11.93;2.28;;;;;;;;;;4978414;28;20631;-65
2022/10/08 04:36:25;;;;;;;10.95;2.35;;;;;;;;;;4976766;28;20584;-65
2022/10/08 04:38:51;;;;;;;11.98;2.28;;;;;;;;;;4982039;28;20453;-65
2022/10/08 04:41:19;;;;;;;21.80;2.67;;;;;;;;;;4982752;28;20090;-65
2022/10/08 04:43:46;;;;;;;19.63;3.10;;;;;;;;;;4982089;28;20130;-65
2022/10/08 04:46:13;;;;;;;14.95;2.65;;;;;;;;;;4984023;28;20397;-65
2022/10/08 04:48:39;;;;;;;12.65;3.30;;;;;;;;;;4983054;28;20042;-65
2022/10/08 04:51:07;;;;;;;14.18;2.40;;;;;;;;;;4983733;28;20064;-65
2022/10/08 04:53:35;;;;;;;13.93;2.83;;;;;;;;;;4980832;28;21692;-65
2022/10/08 04:56:09;;;;;;;10.13;2.40;;;;;;;;;;4981403;28;20039;-65
2022/10/08 04:58:35;;;;;;;13.18;2.83;;;;;;;;;;4981461;28;20426;-65
2022/10/08 05:01:03;;;;;;;11.57;3.05;;;;;;;;;;4981816;28;20169;-65
2022/10/08 05:03:29;;;;;;;13.48;2.78;;;;;;;;;;4981721;28;20124;-65
2022/10/08 05:05:55;;;;;;;20.67;3.20;;;;;;;;;;4982748;28;21652;-65
2022/10/08 05:08:21;;;;;;;22.00;2.83;;;;;;;;;;4984736;28;20137;-65
2022/10/08 05:10:48;;;;;;;17.88;2.80;;;;;;;;;;4981019;28;20439;-65
2022/10/08 05:13:15;;;;;;;16.20;3.20;;;;;;;;;;4983693;28;20108;-65
2022/10/08 05:15:41;;;;;;;10.23;2.58;;;;;;;;;;4981128;28;20416;-64
2022/10/08 05:18:07;;;;;;;15.68;2.80;;;;;;;;;;4982287;28;20112;-64
2022/10/08 05:20:35;;;;;;;15.43;2.40;;;;;;;;;;4982446;28;20141;-65
2022/10/08 05:23:01;;;;;;;23.42;3.05;;;;;;;;;;4982742;28;20034;-65
2022/10/08 05:25:30;;;;;;;11.43;1.95;;;;;;;;;;4981441;28;20057;-65
2022/10/08 05:27:56;;;;;;;11.63;2.58;;;;;;;;;;4982025;28;20521;-64
2022/10/08 05:30:22;;;;;;;20.60;3.08;;;;;;;;;;4981371;28;20056;-65
2022/10/08 05:32:49;;;;;;;14.55;2.72;;;;;;;;;;4982277;28;20545;-64
2022/10/08 05:35:15;;;;;;;17.20;3.65;;;;;;;;;;4984012;28;20401;-65
2022/10/08 05:37:41;;;;;;;13.13;3.00;;;;;;;;;;4981367;28;20030;-65
2022/10/08 05:40:07;;;;;;;14.00;3.00;;;;;;;;;;4983508;28;20050;-65
2022/10/08 05:42:33;;;;;;;12.73;2.58;;;;;;;;;;4984193;28;20125;-65
2022/10/08 05:44:59;;;;;;;25.17;3.38;;;;;;;;;;4981496;28;20053;-65
2022/10/08 05:47:25;;;;;;;12.93;2.80;;;;;;;;;;4976112;28;20042;-65
2022/10/08 05:49:52;;;;;;;20.55;3.70;;;;;;;;;;4979248;28;20049;-65
2022/10/08 05:52:18;;;;;;;12.18;2.30;;;;;;;;;;4975842;28;20054;-64
2022/10/08 05:54:44;;;;;;;12.32;2.28;;;;;;;;;;4980102;28;20065;-65
2022/10/08 05:57:10;;;;;;;13.95;2.35;;;;;;;;;;4977942;28;20045;-65
2022/10/08 05:59:36;;;;;;;11.27;2.42;;;;;;;;;;4980724;28;20065;-65
2022/10/08 06:02:02;;;;;;;18.08;2.92;;;;;;;;;;4983693;28;20528;-66
2022/10/08 06:04:29;;;;;;;18.50;2.40;;;;;;;;;;4986436;28;20046;-65
2022/10/08 06:06:55;;;;;;;12.80;3.55;;;;;;;;;;4984401;28;20073;-65
2022/10/08 06:09:21;;;;;;;13.18;3.20;;;;;;;;;;4982057;28;20051;-65
2022/10/08 06:11:48;;;;;;;16.55;3.53;;;;;;;;;;4968078;28;20042;-65
2022/10/08 06:14:16;;;;;;;15.50;3.40;;;;;;;;;;4965868;28;20093;-65
2022/10/08 06:16:42;;;;;;;14.25;3.58;;;;;;;;;;4968034;28;20051;-64
2022/10/08 06:19:09;;;;;;;20.30;2.58;;;;;;;;;;4953205;28;20110;-65
2022/10/08 06:21:35;;;;;;;30.92;3.97;;;;;;;;;;4970511;28;20053;-65
2022/10/08 06:24:03;;;;;;;22.80;3.38;;;;;;;;;;4954043;28;20355;-65
2022/10/08 06:26:31;;;;;;;15.20;2.53;;;;;;;;;;4968342;28;20561;-65
2022/10/08 06:28:57;;;;;;;13.80;3.15;;;;;;;;;;4953317;28;20086;-65
2022/10/08 06:31:24;;;;;;;11.50;2.58;;;;;;;;;;4952956;28;20055;-65
2022/10/08 06:33:50;;;;;;;11.98;1.67;;;;;;;;;;4969209;28;20047;-65
2022/10/08 06:36:17;;;;;;;13.27;2.17;;;;;;;;;;4950982;28;20042;-65
2022/10/08 06:38:48;;;;;;;11.68;1.63;;;;;;;;;;4970165;28;20070;-65
2022/10/08 06:41:14;;;;;;;15.27;1.83;;;;;;;;;;4969759;28;20077;-67
2022/10/08 06:43:41;;;;;;;12.93;2.38;;;;;;;;;;4967971;28;20061;-65
2022/10/08 06:46:07;;;;;;;12.27;2.10;;;;;;;;;;4968716;28;20086;-65
2022/10/08 06:48:33;;;;;;;12.98;1.33;;;;;;;;;;4950940;28;20399;-65
2022/10/08 06:51:00;;;;;;;4.90;1.13;;;;;;;;;;4969866;28;21848;-65
2022/10/08 06:53:27;;;;;;;6.80;1.10;;;;;;;;;;4968432;28;20038;-65
2022/10/08 06:55:57;;;;;;;4.57;0.93;;;;;;;;;;4949130;28;20050;-65
2022/10/08 06:58:23;;;;;;;7.72;1.30;;;;;;;;;;4970112;28;20047;-65
2022/10/08 07:00:49;;;;;;;1.48;0.70;;;;;;;;;;4970203;28;20039;-65
2022/10/08 07:03:16;;;;;;;4.13;0.82;;;;;;;;;;4950423;28;20063;-65
2022/10/08 07:05:43;;;;;;;7.95;1.58;;;;;;;;;;4970463;28;20062;-64
2022/10/08 07:08:09;;;;;;;3.35;0.70;;;;;;;;;;4969166;28;20380;-64
2022/10/08 07:10:35;;;;;;;6.18;1.20;;;;;;;;;;4982537;28;20517;-64
2022/10/08 07:13:01;;;;;;;6.07;1.42;;;;;;;;;;4988967;28;20147;-65
2022/10/08 07:15:30;;;;;;;4.75;0.95;;;;;;;;;;4986227;28;20050;-65
2022/10/08 07:17:56;;;;;;;8.13;1.13;;;;;;;;;;4987070;28;20046;-65
2022/10/08 07:20:22;;;;;;;7.25;1.30;;;;;;;;;;4987134;28;20043;-65
2022/10/08 07:22:48;;;;;;;4.93;1.45;;;;;;;;;;4985261;28;20402;-63
2022/10/08 07:25:14;;;;;;;9.88;1.52;;;;;;;;;;4988332;28;20042;-65
2022/10/08 07:27:40;;;;;;;8.55;1.70;;;;;;;;;;4985210;28;20042;-65
2022/10/08 07:30:07;;;;;;;11.65;1.58;;;;;;;;;;4986856;28;20113;-65
2022/10/08 07:32:33;;;;;;;8.70;1.75;;;;;;;;;;4986233;28;20061;-64
2022/10/08 07:34:59;;;;;;;11.65;2.15;;;;;;;;;;4986609;28;20081;-64
2022/10/08 07:37:25;;;;;;;10.82;1.40;;;;;;;;;;4984030;28;20100;-65
2022/10/08 07:39:51;;;;;;;12.10;2.35;;;;;;;;;;4988575;28;20190;-65
2022/10/08 07:42:17;;;;;;;10.38;1.40;;;;;;;;;;4990985;28;20050;-65
2022/10/08 07:44:43;;;;;;;8.55;1.50;;;;;;;;;;4990231;28;20043;-65
2022/10/08 07:47:10;;;;;;;16.00;2.17;;;;;;;;;;4990757;28;20042;-65
2022/10/08 07:49:36;;;;;;;16.40;1.90;;;;;;;;;;4990104;28;20039;-65
2022/10/08 07:52:02;;;;;;;9.77;1.70;;;;;;;;;;4989918;28;20046;-65
2022/10/08 07:54:28;;;;;;;16.00;2.30;;;;;;;;;;4989983;28;20125;-65
2022/10/08 07:56:54;;;;;;;19.50;2.20;;;;;;;;;;4989892;28;20474;-65
2022/10/08 07:59:20;;;;;;;13.38;2.83;;;;;;;;;;4986615;28;20512;-65
2022/10/08 08:01:46;;;;;;;16.25;2.00;;;;;;;;;;4990707;28;20034;-65
2022/10/08 08:04:13;;;;;;;13.85;2.13;;;;;;;;;;4989261;28;20057;-65
2022/10/08 08:06:41;;;;;;;10.27;2.30;;;;;;;;;;4989846;28;20069;-65
2022/10/08 08:09:07;;;;;;;10.15;1.52;;;;;;;;;;4986988;28;20047;-64
2022/10/08 08:11:34;;;;;;;12.55;2.25;;;;;;;;;;4990481;28;20446;-65
2022/10/08 08:14:00;;;;;;;11.80;1.90;;;;;;;;;;4989736;28;20042;-65
2022/10/08 08:16:26;;;;;;;7.53;1.98;;;;;;;;;;4989122;28;20077;-65
2022/10/08 08:18:54;;;;;;;14.50;2.13;;;;;;;;;;4969160;28;20129;-65
2022/10/08 08:21:22;;;;;;;12.68;1.75;;;;;;;;;;4988047;28;20438;-65
2022/10/08 08:23:49;;;;;;;12.48;1.70;;;;;;;;;;4990396;28;20069;-65
2022/10/08 08:26:20;;;;;;;8.27;1.88;;;;;;;;;;4989249;28;20437;-65
2022/10/08 08:28:53;;;;;;;15.98;2.03;;;;;;;;;;4990181;28;20117;-65
2022/10/08 08:31:20;;;;;;;11.67;1.80;;;;;;;;;;4990211;28;20153;-65
2022/10/08 08:33:49;;;;;;;11.73;1.63;;;;;;;;;;4989486;28;20049;-65
2022/10/08 08:36:16;;;;;;;15.15;2.80;;;;;;;;;;4988437;28;20052;-65
2022/10/08 08:38:42;;;;;;;10.25;1.70;;;;;;;;;;4990082;28;20129;-65
2022/10/08 08:41:08;;;;;;;13.05;1.25;;;;;;;;;;4989573;28;20050;-65
2022/10/08 08:43:34;;;;;;;15.23;2.17;;;;;;;;;;4989635;28;21383;-65
2022/10/08 08:46:02;;;;;;;12.88;2.05;;;;;;;;;;4989658;28;20061;-65
2022/10/08 08:48:31;;;;;;;12.88;1.83;;;;;;;;;;4988655;28;20065;-65
2022/10/08 08:50:58;;;;;;;8.07;1.70;;;;;;;;;;4990580;28;20390;-65
2022/10/08 08:53:24;;;;;;;9.70;1.60;;;;;;;;;;4988626;28;20046;-65
2022/10/08 08:55:53;;;;;;;11.63;2.10;;;;;;;;;;4988861;28;20034;-65
2022/10/08 08:58:22;;;;;;;10.45;2.08;;;;;;;;;;4989340;28;20074;-65
2022/10/08 09:00:56;;;;;;;11.07;1.75;;;;;;;;;;4989675;28;20114;-65
2022/10/08 09:03:33;;;;;;;12.27;2.15;;;;;;;;;;4986350;28;20481;-65
2022/10/08 09:06:02;;;;;;;15.48;1.90;;;;;;;;;;4989267;28;20121;-65
2022/10/08 09:08:34;;;;;;;14.18;2.15;;;;;;;;;;4988117;28;20406;-65
2022/10/08 09:11:02;;;;;;;15.50;2.10;;;;;;;;;;4984825;28;20499;-65
2022/10/08 09:13:31;;;;;;;12.88;1.80;;;;;;;;;;4986445;28;20038;-65
2022/10/08 09:15:57;;;;;;;10.23;2.05;;;;;;;;;;4987468;28;20065;-65
2022/10/08 09:18:23;;;;;;;13.98;2.45;;;;;;;;;;4989442;28;20053;-65
2022/10/08 09:20:50;;;;;;;12.52;2.00;;;;;;;;;;4989613;28;20046;-65
2022/10/08 09:23:18;;;;;;;12.25;1.90;;;;;;;;;;4988556;28;20568;-65
2022/10/08 09:25:47;;;;;;;13.57;2.08;;;;;;;;;;4987829;28;20504;-65
2022/10/08 09:28:33;;;;;;;6.65;1.42;;;;;;;;;;4989003;28;20411;-65
2022/10/08 09:31:10;;;;;;;12.20;2.13;;;;;;;;;;4986519;28;20133;-65
2022/10/08 09:33:37;;;;;;;10.68;2.08;;;;;;;;;;4989641;28;20046;-65
2022/10/08 09:36:03;;;;;;;9.55;1.92;;;;;;;;;;4989266;28;20046;-65
2022/10/08 09:38:32;;;;;;;19.63;2.28;;;;;;;;;;4986674;28;20435;-65
2022/10/08 09:40:59;;;;;;;15.07;2.22;;;;;;;;;;4987624;28;20142;-65
2022/10/08 09:43:25;;;;;;;14.45;2.65;;;;;;;;;;4989073;28;20516;-65
2022/10/08 09:45:53;;;;;;;10.18;2.75;;;;;;;;;;4989680;28;20128;-65
2022/10/08 09:48:20;;;;;;;13.90;1.75;;;;;;;;;;4988619;28;20042;-65
2022/10/08 09:50:48;;;;;;;14.75;2.53;;;;;;;;;;4987625;28;20038;-65
2022/10/08 09:53:15;;;;;;;11.07;1.73;;;;;;;;;;4985652;28;20047;-65
2022/10/08 09:55:48;;;;;;;14.27;2.35;;;;;;;;;;4989195;28;20086;-65
2022/10/08 09:58:16;;;;;;;10.93;2.03;;;;;;;;;;4988330;28;20176;-65
2022/10/08 10:00:42;;;;;;;8.45;1.63;;;;;;;;;;4988687;28;20047;-65
2022/10/08 10:03:16;;;;;;;11.95;1.95;;;;;;;;;;4988062;28;20042;-65
2022/10/08 10:05:42;;;;;;;;;;;;;;;;;;4986846;28;20358;-65
2022/10/08 10:08:28;;;;;;;9.85;1.70;;;;;;;;;;4987377;28;19921;-65
2022/10/08 10:10:54;;;;;;;11.20;2.15;;;;;;;;;;4970936;28;20505;-65
2022/10/08 10:13:23;;;;;;;16.60;2.28;;;;;;;;;;4968505;28;20051;-65
2022/10/08 10:15:56;;;;;;;10.43;1.80;;;;;;;;;;4966497;28;20390;-65
2022/10/08 10:18:26;;;;;;;11.68;2.50;;;;;;;;;;4961797;28;20047;-64
2022/10/08 10:20:53;;;;;;;13.55;1.83;;;;;;;;;;4948737;28;20108;-65
2022/10/08 10:23:22;;;;;;;12.32;1.75;;;;;;;;;;4966767;28;20039;-65
2022/10/08 10:25:50;;;;;;;10.35;1.67;;;;;;;;;;4948208;28;20059;-64
2022/10/08 10:28:22;;;;;;;12.60;1.77;;;;;;;;;;4948889;28;21213;-64
2022/10/08 10:30:52;;;;;;;7.88;1.80;;;;;;;;;;4966207;28;20031;-64
2022/10/08 10:33:22;;;;;;;16.58;3.15;;;;;;;;;;4965563;28;20439;-64
2022/10/08 10:35:50;;;;;;;9.02;1.95;;;;;;;;;;4948312;28;20371;-64
2022/10/08 10:38:20;;;;;;;10.38;1.75;;;;;;;;;;4963323;28;20093;-64
2022/10/08 10:40:50;;;;;;;11.25;2.42;;;;;;;;;;4965029;28;20503;-64
2022/10/08 10:43:20;;;;;;;13.70;2.15;;;;;;;;;;4937630;28;20046;-64
2022/10/08 10:45:50;;;;;;;9.88;2.08;;;;;;;;;;4972051;28;20536;-64
2022/10/08 10:48:16;;;;;;;15.48;2.38;;;;;;;;;;4972052;28;20039;-64
2022/10/08 10:50:47;;;;;;;11.98;2.25;;;;;;;;;;4973114;28;20042;-64
2022/10/08 10:53:15;;;;;;;10.57;2.03;;;;;;;;;;4972521;28;20130;-63
2022/10/08 10:55:51;;;;;;;8.60;1.42;;;;;;;;;;4971047;28;20057;-64
2022/10/08 10:58:24;;;;;;;7.85;1.83;;;;;;;;;;4939614;28;20042;-65
2022/10/08 11:00:56;;;;;;;11.50;2.00;;;;;;;;;;4953744;28;20050;-65
2022/10/08 11:03:30;;;;;;;13.65;2.08;;;;;;;;;;4969508;28;20159;-64
2022/10/08 11:06:04;;;;;;;13.60;2.53;;;;;;;;;;4969185;28;20050;-65
2022/10/08 11:08:35;;;;;;;8.68;2.17;;;;;;;;;;4969131;28;20119;-65
2022/10/08 11:11:10;;;;;;;14.30;2.08;;;;;;;;;;4982676;28;20058;-65
2022/10/08 11:13:51;;;;;;;10.43;1.90;;;;;;;;;;4986796;28;20053;-64
2022/10/08 11:16:24;;;;;;;9.57;2.30;;;;;;;;;;4985838;28;20107;-65
2022/10/08 11:18:53;;;;;;;9.15;2.03;;;;;;;;;;4988315;28;20109;-65
2022/10/08 11:21:27;;;;;;;11.60;2.00;;;;;;;;;;4988176;28;20041;-65
2022/10/08 11:24:01;;;;;;;14.05;2.38;;;;;;;;;;4979597;28;20086;-65
2022/10/08 11:26:47;;;;;;;9.82;2.17;;;;;;;;;;4981709;28;20146;-64
2022/10/08 11:29:33;;;;;;;11.25;1.98;;;;;;;;;;4982921;28;20080;-64
2022/10/08 11:32:00;;;;;;;10.18;1.80;;;;;;;;;;4984963;28;20093;-65
2022/10/08 11:34:34;;;;;;;11.63;2.38;;;;;;;;;;4985011;28;20056;-64
2022/10/08 11:37:08;;;;;;;9.15;1.73;;;;;;;;;;4986269;28;20046;-65
2022/10/08 11:39:41;;;;;;;8.90;2.42;;;;;;;;;;4984749;28;20046;-65
2022/10/08 11:42:08;;;;;;;7.70;1.65;;;;;;;;;;4985108;28;20592;-65
2022/10/08 11:44:36;;;;;;;7.90;1.52;;;;;;;;;;4983419;28;20409;-65
2022/10/08 11:47:20;;;;;;;10.73;1.98;;;;;;;;;;4987010;28;20086;-65
2022/10/08 11:49:51;;;;;;;9.40;1.85;;;;;;;;;;4987541;28;20073;-65
2022/10/08 11:52:17;;;;;;;9.35;1.55;;;;;;;;;;4986166;28;20125;-64
2022/10/08 11:54:48;;;;;;;8.93;2.03;;;;;;;;;;4983703;28;20399;-65
2022/10/08 11:57:19;;;;;;;9.23;1.67;;;;;;;;;;4984524;28;20122;-65
2022/10/08 11:59:47;;;;;;;11.95;1.80;;;;;;;;;;4983065;28;20074;-65
2022/10/08 12:02:22;;;;;;;12.70;2.05;;;;;;;;;;4982763;28;20142;-65
2022/10/08 12:04:50;;;;;;;10.52;2.40;;;;;;;;;;4986041;28;20352;-65
2022/10/08 12:07:25;;;;;;;16.33;2.25;;;;;;;;;;4983544;28;20046;-65
2022/10/08 12:10:07;;;;;;;10.13;2.25;;;;;;;;;;4982760;28;20058;-65
2022/10/08 12:12:49;;;;;;;8.68;2.05;;;;;;;;;;4983556;28;20120;-65
2022/10/08 12:15:26;;;;;;;5.57;1.15;;;;;;;;;;4983422;28;20393;-66
2022/10/08 12:17:54;;;;;;;3.75;0.80;;;;;;;;;;4982625;28;20069;-65
2022/10/08 12:20:21;;;;;;;6.97;1.13;;;;;;;;;;4982811;28;20431;-65
2022/10/08 12:23:02;;;;;;;7.13;1.02;;;;;;;;;;4998805;28;20042;-65
2022/10/08 12:25:30;;;;;;;5.85;1.13;;;;;;;;;;4980754;28;20490;-65
2022/10/08 12:28:17;;;;;;;6.10;1.35;;;;;;;;;;4983698;28;20054;-66
2022/10/08 12:30:51;;;;;;;7.60;1.23;;;;;;;;;;4981939;28;20054;-64
2022/10/08 12:33:17;;;;;;;3.92;1.08;;;;;;;;;;4982613;28;20529;-65
2022/10/08 12:35:50;;;;;;;9.88;1.30;;;;;;;;;;4985289;28;20126;-65
2022/10/08 12:38:17;;;;;;;6.22;1.17;;;;;;;;;;4980849;28;20056;-65
2022/10/08 12:41:00;;;;;;;6.95;1.25;;;;;;;;;;4981897;28;20054;-65
2022/10/08 12:43:36;;;;;;;11.23;2.42;;;;;;;;;;4984615;28;20049;-65
2022/10/08 12:46:16;;;;;;;9.80;1.60;;;;;;;;;;4982932;28;20057;-65
2022/10/08 12:49:00;;;;;;;10.45;2.03;;;;;;;;;;4980122;28;20065;-66
2022/10/08 12:51:26;;;;;;;;;;;;;;;;;;4982465;28;20047;-65
2022/10/08 12:53:52;;;;;;;9.00;1.45;;;;;;;;;;4983598;28;19945;-66
2022/10/08 12:56:23;;;;;;;7.32;1.30;;;;;;;;;;4983332;28;20050;-66
2022/10/08 12:58:50;;;;;;;7.45;1.38;;;;;;;;;;4981935;28;20053;-65
2022/10/08 13:01:17;;;;;;;11.02;1.98;;;;;;;;;;4984353;28;20113;-65
2022/10/08 13:03:43;;;;;;;7.68;1.58;;;;;;;;;;4982487;28;20079;-65
2022/10/08 13:06:15;;;;;;;10.05;2.22;;;;;;;;;;4982724;28;20531;-65
2022/10/08 13:08:41;;;;;;;10.02;2.10;;;;;;;;;;4982879;28;20038;-65
2022/10/08 13:11:09;;;;;;;10.20;1.80;;;;;;;;;;4983326;28;20090;-65
2022/10/08 13:13:35;;;;;;;8.95;1.60;;;;;;;;;;4984114;28;20461;-65
2022/10/08 13:16:03;;;;;;;10.38;1.95;;;;;;;;;;4981367;28;20394;-66
2022/10/08 13:18:29;;;;;;;15.60;2.25;;;;;;;;;;4979998;28;20038;-65
2022/10/08 13:21:01;;;;;;;12.68;2.05;;;;;;;;;;4981158;28;20122;-65
2022/10/08 13:23:33;;;;;;;15.57;2.45;;;;;;;;;;4982851;28;20050;-65
2022/10/08 13:25:59;;;;;;;10.32;1.90;;;;;;;;;;4980425;28;20053;-65
2022/10/08 13:28:26;;;;;;;9.65;2.03;;;;;;;;;;4980817;28;20038;-65
2022/10/08 13:30:55;;;;;;;8.00;1.48;;;;;;;;;;4982780;28;20038;-65
2022/10/08 13:33:23;;;;;;;8.27;1.77;;;;;;;;;;4984391;28;20486;-65
2022/10/08 13:35:54;;;;;;;7.97;1.45;;;;;;;;;;4982499;28;20357;-66
2022/10/08 13:38:23;;;;;;;9.60;1.77;;;;;;;;;;4980526;28;20038;-65
2022/10/08 13:40:51;;;;;;;11.05;1.85;;;;;;;;;;4985469;28;20092;-66
2022/10/08 13:43:17;;;;;;;9.77;2.00;;;;;;;;;;4979631;28;20126;-66
2022/10/08 13:45:44;;;;;;;8.77;1.88;;;;;;;;;;4981702;28;20081;-66
2022/10/08 13:48:12;;;;;;;9.50;1.98;;;;;;;;;;4981163;28;20042;-66
2022/10/08 13:50:45;;;;;;;10.43;2.47;;;;;;;;;;4977309;28;20042;-66
2022/10/08 13:53:13;;;;;;;14.05;2.83;;;;;;;;;;4984926;28;20082;-66
2022/10/08 13:55:41;;;;;;;10.13;1.98;;;;;;;;;;4979915;28;20089;-66
2022/10/08 13:58:07;;;;;;;9.63;1.77;;;;;;;;;;4980702;28;20046;-66
2022/10/08 14:00:36;;;;;;;15.20;2.35;;;;;;;;;;4982711;28;20050;-65
2022/10/08 14:03:02;;;;;;;9.70;1.75;;;;;;;;;;4980244;28;20603;-65
2022/10/08 14:05:29;;;;;;;10.15;2.00;;;;;;;;;;4981718;28;20517;-65
2022/10/08 14:07:57;;;;;;;10.43;2.40;;;;;;;;;;4983054;28;20034;-65
2022/10/08 14:10:23;;;;;;;11.98;1.95;;;;;;;;;;4969929;28;20063;-65
2022/10/08 14:12:49;;;;;;;13.40;2.28;;;;;;;;;;4962919;28;20554;-65
2022/10/08 14:15:16;;;;;;;11.30;1.95;;;;;;;;;;4963423;28;20463;-65
2022/10/08 14:17:42;;;;;;;17.05;3.80;;;;;;;;;;4949287;28;20082;-65
2022/10/08 14:20:09;;;;;;;15.10;2.33;;;;;;;;;;4966916;28;20231;-65
2022/10/08 14:22:38;;;;;;;14.50;2.65;;;;;;;;;;4949106;28;20387;-65
2022/10/08 14:25:06;;;;;;;11.43;2.25;;;;;;;;;;4966516;28;20129;-66
2022/10/08 14:27:32;;;;;;;9.90;2.13;;;;;;;;;;4950943;28;20054;-65
2022/10/08 14:29:58;;;;;;;10.25;1.80;;;;;;;;;;4947407;28;20066;-65
2022/10/08 14:32:24;;;;;;;9.90;2.60;;;;;;;;;;4965524;28;20101;-65
2022/10/08 14:34:50;;;;;;;10.90;2.13;;;;;;;;;;4967425;28;20042;-65
2022/10/08 14:37:16;;;;;;;9.27;1.70;;;;;;;;;;4967076;28;20042;-65
2022/10/08 14:39:43;;;;;;;7.80;1.70;;;;;;;;;;4947951;28;20073;-65
2022/10/08 14:42:09;;;;;;;11.02;2.00;;;;;;;;;;4964163;28;20074;-65
2022/10/08 14:44:35;;;;;;;8.30;1.45;;;;;;;;;;4950971;28;20038;-66